Time;durP1;ratioP1;P1;durP2;ratioP2;P2;SDS_P1;SDS_P2;PMS_P1;PMS_P2;Temp;Humidity;BMP_temperature;BMP_pressure;BME280_temperature;BME280_humidity;BME280_pressure;Samples;Min_cycle;Max_cycle;Signal;HPM_P1;HPM_P2
2022/10/23 00:01:33;;;;;;;21.90;10.15;;;9.40;99.90;;;;;;4935454;29;20422;-84
2022/10/23 00:04:01;;;;;;;25.27;10.45;;;9.40;99.90;;;;;;4936709;29;20085;-83
2022/10/23 00:06:28;;;;;;;24.43;11.10;;;9.40;99.90;;;;;;5024749;23;20092;-82
2022/10/23 00:08:54;;;;;;;24.73;11.20;;;9.50;99.90;;;;;;4917945;29;20055;-83
2022/10/23 00:11:23;;;;;;;21.00;10.97;;;9.50;99.90;;;;;;4917860;29;20083;-83
2022/10/23 00:13:50;;;;;;;21.67;12.00;;;9.40;99.90;;;;;;4916950;29;20092;-83
2022/10/23 00:16:15;;;;;;;22.07;11.33;;;9.40;99.90;;;;;;5012501;23;20054;-83
2022/10/23 00:18:41;;;;;;;28.73;11.17;;;9.30;99.90;;;;;;4975264;28;20042;-83
2022/10/23 00:21:13;;;;;;;23.20;11.50;;;9.30;99.90;;;;;;4991893;28;20482;-83
2022/10/23 00:23:39;;;;;;;28.47;12.27;;;9.30;99.90;;;;;;4992590;28;20078;-83
2022/10/23 00:26:07;;;;;;;24.40;11.43;;;9.40;99.90;;;;;;4959269;28;20074;-83
2022/10/23 00:28:33;;;;;;;23.75;11.45;;;9.40;99.90;;;;;;4972437;28;20051;-83
2022/10/23 00:31:04;;;;;;;22.77;11.93;;;9.40;99.90;;;;;;4955881;28;20479;-83
2022/10/23 00:33:32;;;;;;;26.02;10.85;;;9.30;99.90;;;;;;4955937;28;20483;-83
2022/10/23 00:35:58;;;;;;;21.88;11.57;;;9.30;99.90;;;;;;4961744;23;20093;-83
2022/10/23 00:38:24;;;;;;;23.60;11.55;;;9.30;99.90;;;;;;4972747;28;20038;-83
2022/10/23 00:40:50;;;;;;;18.65;10.90;;;9.20;99.90;;;;;;4955616;28;20107;-82
2022/10/23 00:43:24;;;;;;;24.45;12.10;;;9.20;99.90;;;;;;4954261;28;20051;-83
2022/10/23 00:45:51;;;;;;;22.50;10.88;;;9.30;99.90;;;;;;4973225;28;20087;-83
2022/10/23 00:48:17;;;;;;;25.10;10.63;;;9.20;99.90;;;;;;4972876;28;20054;-83
2022/10/23 00:50:45;;;;;;;25.23;12.43;;;9.20;99.90;;;;;;4972484;28;20317;-83
2022/10/23 00:53:12;;;;;;;26.83;11.45;;;9.20;99.90;;;;;;4994125;23;20450;-82
2022/10/23 00:55:44;;;;;;;24.95;11.95;;;9.20;99.90;;;;;;4996251;28;20057;-83
2022/10/23 00:58:10;;;;;;;25.30;12.50;;;9.20;99.90;;;;;;5048897;23;20054;-83
2022/10/23 01:00:55;;;;;;;24.25;12.02;;;9.20;99.90;;;;;;4978298;28;20046;-83
2022/10/23 01:03:24;;;;;;;26.67;11.13;;;9.20;99.90;;;;;;4994537;28;20042;-82
2022/10/23 01:06:03;;;;;;;23.67;11.77;;;9.20;99.90;;;;;;4978259;28;20053;-83
2022/10/23 01:09:00;;;;;;;22.52;11.68;;;9.20;99.90;;;;;;4995327;28;20501;-83
2022/10/23 01:11:41;;;;;;;25.35;12.63;;;9.20;99.90;;;;;;4977386;28;20474;-83
2022/10/23 01:14:42;;;;;;;24.05;11.73;;;9.20;99.90;;;;;;4995334;28;20490;-83
2022/10/23 01:21:24;;;;;;;28.35;11.77;;;8.70;99.90;;;;;;4964766;23;20061;-83
2022/10/23 01:24:21;;;;;;;26.60;11.75;;;9.20;99.90;;;;;;4978101;28;20054;-83
2022/10/23 01:27:08;;;;;;;23.52;12.18;;;9.20;99.90;;;;;;4995579;28;20096;-83
2022/10/23 01:32:18;;;;;;;25.77;11.95;;;9.20;99.90;;;;;;5085460;23;20064;-83
2022/10/23 01:34:59;;;;;;;22.85;11.52;;;9.20;99.90;;;;;;4977554;23;20141;-83
2022/10/23 01:37:46;;;;;;;31.50;13.90;;;9.20;99.90;;;;;;4994946;28;20054;-83
2022/10/23 01:40:49;;;;;;;26.55;12.50;;;9.20;99.90;;;;;;4976586;28;20042;-83
2022/10/23 01:43:19;;;;;;;24.60;12.05;;;9.20;99.90;;;;;;4995036;28;20125;-82
2022/10/23 01:45:50;;;;;;;30.10;13.15;;;9.20;99.90;;;;;;4976780;28;20089;-83
2022/10/23 01:48:22;;;;;;;26.48;11.93;;;9.20;99.90;;;;;;5130448;23;20506;-82
2022/10/23 01:50:48;;;;;;;23.83;12.25;;;9.00;99.90;;;;;;4974060;28;20093;-83
2022/10/23 01:53:15;;;;;;;26.35;11.77;;;9.10;99.90;;;;;;4974397;28;20047;-83
2022/10/23 01:55:42;;;;;;;23.60;11.73;;;9.10;99.90;;;;;;4958277;28;20104;-83
2022/10/23 01:58:09;;;;;;;27.08;12.57;;;9.00;99.90;;;;;;4957566;28;20093;-83
2022/10/23 02:00:38;;;;;;;23.03;11.20;;;9.00;99.90;;;;;;4954687;28;20061;-83
2022/10/23 02:03:07;;;;;;;22.07;11.63;;;9.00;99.90;;;;;;4955046;28;20043;-83
2022/10/23 02:05:33;;;;;;;23.07;11.47;;;9.00;99.90;;;;;;4938533;29;20051;-83
2022/10/23 02:08:00;;;;;;;21.63;11.23;;;8.90;99.90;;;;;;4955569;29;20039;-83
2022/10/23 02:10:37;;;;;;;26.07;12.23;;;8.90;99.90;;;;;;4954201;29;20047;-83
2022/10/23 02:13:19;;;;;;;23.27;12.43;;;8.90;99.90;;;;;;4955762;29;20549;-82
2022/10/23 02:16:10;;;;;;;28.73;12.33;;;8.90;99.90;;;;;;4939143;29;20051;-83
2022/10/23 02:19:20;;;;;;;32.43;13.03;;;8.90;99.90;;;;;;4938718;29;20043;-82
2022/10/23 02:22:09;;;;;;;21.67;11.57;;;8.80;99.90;;;;;;4920384;29;20055;-83
2022/10/23 02:24:48;;;;;;;27.30;12.70;;;8.80;99.90;;;;;;4938157;29;20138;-83
2022/10/23 02:27:22;;;;;;;25.75;12.77;;;8.80;99.90;;;;;;4955396;29;20050;-83
2022/10/23 02:29:54;;;;;;;20.52;11.80;;;8.70;99.90;;;;;;4954234;29;20094;-83
2022/10/23 02:34:56;;;;;;;;;;;8.60;99.90;;;;;;4972003;28;20055;-83
2022/10/23 02:37:22;;;;;;;23.00;11.87;;;8.50;99.90;;;;;;4957601;28;19926;-83
2022/10/23 02:39:48;;;;;;;23.30;10.60;;;8.50;99.90;;;;;;4974733;28;20035;-81
2022/10/23 02:42:26;;;;;;;23.02;12.13;;;8.50;99.90;;;;;;4973632;28;20122;-81
2022/10/23 02:45:13;;;;;;;23.20;10.57;;;8.40;99.90;;;;;;4956792;28;20105;-83
2022/10/23 02:48:11;;;;;;;26.07;12.57;;;8.40;99.90;;;;;;4974198;28;20043;-83
2022/10/23 02:51:14;;;;;;;43.83;12.32;;;8.40;99.90;;;;;;4973945;28;20042;-83
2022/10/23 02:54:01;;;;;;;37.53;12.67;;;8.40;99.90;;;;;;4957476;28;20427;-83
2022/10/23 02:56:41;;;;;;;21.37;11.20;;;8.30;99.90;;;;;;4956311;28;20051;-83
2022/10/23 02:59:47;;;;;;;27.87;11.67;;;8.30;99.90;;;;;;4957143;28;20047;-83
2022/10/23 03:02:28;;;;;;;24.07;12.10;;;8.30;99.90;;;;;;4943358;28;20392;-83
2022/10/23 03:04:59;;;;;;;26.83;13.70;;;8.30;99.90;;;;;;4956670;28;20558;-83
2022/10/23 03:07:25;;;;;;;25.37;13.30;;;8.30;99.90;;;;;;4974147;28;20166;-83
2022/10/23 03:09:51;;;;;;;29.10;13.27;;;8.30;99.90;;;;;;4956196;28;20406;-83
2022/10/23 03:12:17;;;;;;;24.43;13.27;;;8.30;99.90;;;;;;4973898;28;20118;-83
2022/10/23 03:14:42;;;;;;;27.67;14.00;;;8.30;99.90;;;;;;4956562;28;20400;-83
2022/10/23 03:17:09;;;;;;;25.53;13.50;;;8.40;99.90;;;;;;4972870;28;20043;-83
2022/10/23 03:19:34;;;;;;;26.30;13.30;;;8.40;99.90;;;;;;4956336;28;20097;-83
2022/10/23 03:22:00;;;;;;;24.80;12.83;;;8.40;99.90;;;;;;4956787;28;20051;-83
2022/10/23 03:24:26;;;;;;;26.53;12.83;;;8.50;99.90;;;;;;4955827;28;20166;-83
2022/10/23 03:26:51;;;;;;;26.23;13.33;;;8.30;99.90;;;;;;4974192;28;20062;-83
2022/10/23 03:31:45;;;;;;;33.70;14.03;;;8.30;99.90;;;;;;4971630;28;20057;-83
2022/10/23 03:34:18;;;;;;;26.23;13.63;;;8.30;99.90;;;;;;4955898;28;20051;-83
2022/10/23 03:36:43;;;;;;;27.30;13.03;;;8.30;99.90;;;;;;4956471;28;20043;-83
2022/10/23 03:39:09;;;;;;;26.07;13.30;;;8.40;99.90;;;;;;4973026;28;20403;-83
2022/10/23 03:41:35;;;;;;;23.87;12.87;;;8.30;99.90;;;;;;4956640;28;20109;-83
2022/10/23 03:44:00;;;;;;;28.87;13.70;;;8.30;99.90;;;;;;4974011;28;20050;-83
2022/10/23 03:46:26;;;;;;;25.67;13.67;;;8.30;99.90;;;;;;4955197;28;20491;-83
2022/10/23 03:48:51;;;;;;;27.23;13.17;;;8.30;99.90;;;;;;4973468;28;20066;-83
2022/10/23 03:51:17;;;;;;;28.83;14.43;;;8.40;99.90;;;;;;4955865;28;20134;-83
2022/10/23 03:53:43;;;;;;;26.97;13.83;;;8.40;99.90;;;;;;4955482;28;20042;-83
2022/10/23 03:56:08;;;;;;;30.77;14.40;;;8.40;99.90;;;;;;4955834;28;20047;-83
2022/10/23 03:58:34;;;;;;;28.60;14.93;;;9.20;99.90;;;;;;4956277;28;20042;-83
2022/10/23 04:00:59;;;;;;;31.83;15.47;;;8.40;99.90;;;;;;4955040;28;20097;-83
2022/10/23 04:03:25;;;;;;;26.20;14.47;;;8.40;99.90;;;;;;4955457;28;20057;-83
2022/10/23 04:05:51;;;;;;;29.10;14.23;;;8.40;99.90;;;;;;4972358;28;20039;-83
2022/10/23 04:08:16;;;;;;;28.93;15.10;;;8.40;99.90;;;;;;4972955;28;20472;-83
2022/10/23 04:10:42;;;;;;;29.83;14.80;;;8.40;99.90;;;;;;4973294;28;20426;-83
2022/10/23 04:13:07;;;;;;;35.93;16.37;;;8.40;99.90;;;;;;4972430;28;20137;-83
2022/10/23 04:15:33;;;;;;;38.57;15.73;;;8.50;99.90;;;;;;4955887;28;20054;-83
2022/10/23 04:17:58;;;;;;;34.90;16.30;;;8.50;99.90;;;;;;4955919;28;20075;-84
2022/10/23 04:20:24;;;;;;;33.77;18.17;;;8.60;99.90;;;;;;4971888;28;20053;-83
2022/10/23 04:22:49;;;;;;;38.40;17.57;;;8.60;99.90;;;;;;4956048;28;20407;-83
2022/10/23 04:25:15;;;;;;;38.70;18.30;;;8.60;99.90;;;;;;4956061;28;20141;-83
2022/10/23 04:27:41;;;;;;;43.60;20.03;;;8.70;99.90;;;;;;4958545;28;20134;-83
2022/10/23 04:30:07;;;;;;;40.30;18.90;;;8.80;99.90;;;;;;4952882;29;20090;-83
2022/10/23 04:32:36;;;;;;;35.90;18.30;;;8.80;99.90;;;;;;4957939;28;20480;-83
2022/10/23 04:35:02;;;;;;;41.13;19.10;;;8.80;99.90;;;;;;4939892;29;20106;-83
2022/10/23 04:39:56;;;;;;;41.15;18.20;;;8.90;99.90;;;;;;5042607;23;20059;-83
2022/10/23 04:42:21;;;;;;;45.53;19.33;;;8.80;99.90;;;;;;4956087;29;20078;-83
2022/10/23 04:44:47;;;;;;;42.77;18.97;;;8.90;99.90;;;;;;4939986;29;20093;-83
2022/10/23 04:47:12;;;;;;;42.67;19.03;;;8.90;99.90;;;;;;4956964;29;20055;-83
2022/10/23 04:49:38;;;;;;;39.73;18.97;;;8.90;99.90;;;;;;4956407;29;20083;-83
2022/10/23 04:52:04;;;;;;;42.60;19.47;;;8.90;99.90;;;;;;4956807;29;20058;-83
2022/10/23 04:54:35;;;;;;;44.53;20.57;;;9.90;99.90;;;;;;5433502;23;20056;-83
2022/10/23 04:57:00;;;;;;;41.00;19.90;;;8.90;99.90;;;;;;4938895;29;20058;-83
2022/10/23 04:59:26;;;;;;;44.37;20.47;;;8.90;99.90;;;;;;4956949;29;20244;-83
2022/10/23 05:04:27;;;;;;;42.57;20.17;;;8.90;99.90;;;;;;5289053;23;20055;-83
2022/10/23 05:06:52;;;;;;;41.90;18.60;;;8.90;99.90;;;;;;4955613;29;20054;-83
2022/10/23 05:09:18;;;;;;;42.23;18.47;;;8.90;99.90;;;;;;4954522;29;20051;-83
2022/10/23 05:11:44;;;;;;;46.30;20.37;;;8.80;99.90;;;;;;4939651;29;20055;-83
2022/10/23 05:14:09;;;;;;;40.73;19.20;;;8.80;99.90;;;;;;4956700;29;20054;-83
2022/10/23 05:16:37;;;;;;;43.40;18.63;;;8.80;99.90;;;;;;4956608;29;20495;-83
2022/10/23 05:19:05;;;;;;;43.70;19.27;;;8.80;99.90;;;;;;4956600;29;20538;-83
2022/10/23 05:21:33;;;;;;;45.33;19.30;;;8.80;99.90;;;;;;4956698;29;20050;-83
2022/10/23 05:24:00;;;;;;;32.13;12.10;;;8.80;99.90;;;;;;4956564;29;20047;-83
2022/10/23 05:26:26;;;;;;;31.63;12.70;;;8.80;99.90;;;;;;4938989;29;20054;-83
2022/10/23 05:28:52;;;;;;;30.70;12.00;;;8.80;99.90;;;;;;4954674;29;20575;-83
2022/10/23 05:31:19;;;;;;;26.50;11.03;;;8.80;99.90;;;;;;4938470;29;20145;-83
2022/10/23 05:33:45;;;;;;;25.73;11.10;;;8.80;99.90;;;;;;4956470;29;20492;-83
2022/10/23 05:36:12;;;;;;;30.13;11.90;;;8.90;99.90;;;;;;4938952;29;20051;-83
2022/10/23 05:38:38;;;;;;;34.07;11.60;;;9.20;99.90;;;;;;4938794;29;20051;-83
2022/10/23 05:41:05;;;;;;;32.00;11.20;;;8.80;99.90;;;;;;4939045;29;20043;-83
2022/10/23 05:43:30;;;;;;;30.23;12.07;;;8.70;99.90;;;;;;4956409;29;20039;-83
2022/10/23 05:45:57;;;;;;;27.60;11.33;;;9.60;99.90;;;;;;4955717;29;20082;-83
2022/10/23 05:48:22;;;;;;;26.77;11.17;;;8.70;99.90;;;;;;4938486;29;20047;-83
2022/10/23 05:50:50;;;;;;;30.00;10.87;;;8.80;99.90;;;;;;4956069;29;20069;-83
2022/10/23 05:53:22;;;;;;;31.58;12.88;;;8.80;99.90;;;;;;4955300;28;20127;-83
2022/10/23 05:58:13;;;;;;;33.57;13.30;;;8.80;99.90;;;;;;4998333;23;20073;-83
2022/10/23 06:00:38;;;;;;;30.80;12.67;;;8.80;99.90;;;;;;4994663;28;20057;-83
2022/10/23 06:03:04;;;;;;;36.53;13.10;;;8.80;99.90;;;;;;4995347;28;20098;-84
2022/10/23 06:05:29;;;;;;;35.73;12.53;;;8.80;99.90;;;;;;4976324;28;20061;-83
2022/10/23 06:07:59;;;;;;;29.90;12.80;;;8.80;99.90;;;;;;4977844;28;20406;-82
2022/10/23 06:10:25;;;;;;;37.93;12.90;;;8.80;99.90;;;;;;4995067;28;20064;-83
2022/10/23 06:12:53;;;;;;;27.87;12.33;;;8.80;99.90;;;;;;5195292;23;20406;-83
2022/10/23 06:15:19;;;;;;;30.07;13.00;;;8.90;99.90;;;;;;4977305;28;20053;-83
2022/10/23 06:17:44;;;;;;;31.37;12.63;;;8.90;99.90;;;;;;5686798;23;20054;-83
2022/10/23 06:20:10;;;;;;;32.47;13.17;;;9.00;99.90;;;;;;4993870;28;20050;-83
2022/10/23 06:22:36;;;;;;;29.70;12.83;;;9.00;99.90;;;;;;4993732;28;20047;-83
2022/10/23 06:25:01;;;;;;;32.23;12.87;;;9.00;99.90;;;;;;4993256;28;20175;-83
2022/10/23 06:27:27;;;;;;;33.37;12.13;;;9.10;99.90;;;;;;4991611;28;20514;-83
2022/10/23 06:29:52;;;;;;;27.85;11.98;;;9.70;99.90;;;;;;4994313;28;20055;-83
2022/10/23 06:32:18;;;;;;;30.10;11.80;;;9.20;99.90;;;;;;4992262;28;20080;-83
2022/10/23 06:34:43;;;;;;;29.75;12.20;;;9.20;99.90;;;;;;4993567;28;20054;-83
2022/10/23 06:37:09;;;;;;;26.90;10.90;;;9.20;99.90;;;;;;4992393;28;20074;-82
2022/10/23 06:39:35;;;;;;;27.10;12.00;;;9.20;99.90;;;;;;4992970;28;20081;-82
2022/10/23 06:42:04;;;;;;;28.83;11.80;;;9.30;99.90;;;;;;4993760;28;20042;-81
2022/10/23 06:44:39;;;;;;;25.77;12.20;;;10.30;99.90;;;;;;4994288;28;20038;-82
2022/10/23 06:47:17;;;;;;;28.65;12.02;;;9.20;99.90;;;;;;4993645;28;20053;-83
2022/10/23 06:50:20;;;;;;;24.10;11.68;;;10.10;99.90;;;;;;4991081;28;20053;-83
2022/10/23 06:52:56;;;;;;;38.63;13.35;;;9.50;99.90;;;;;;4992418;28;20078;-83
2022/10/23 06:55:22;;;;;;;26.25;11.10;;;9.40;99.90;;;;;;4992970;28;20027;-83
2022/10/23 06:57:47;;;;;;;29.80;12.37;;;10.50;99.90;;;;;;4992540;28;20705;-83
2022/10/23 07:00:20;;;;;;;28.13;12.10;;;9.50;99.90;;;;;;4993323;28;20084;-83
2022/10/23 07:02:55;;;;;;;27.00;11.70;;;9.30;99.90;;;;;;4991735;28;20046;-83
2022/10/23 07:05:27;;;;;;;28.73;12.85;;;9.70;99.90;;;;;;4991456;28;20129;-83
2022/10/23 07:08:12;;;;;;;25.63;11.02;;;10.40;99.90;;;;;;4988025;28;20050;-82
2022/10/23 07:10:41;;;;;;;25.43;11.37;;;9.70;99.90;;;;;;4988161;28;20089;-83
2022/10/23 07:13:11;;;;;;;25.70;12.53;;;9.80;99.90;;;;;;4993182;28;20042;-83
2022/10/23 07:15:40;;;;;;;28.97;12.20;;;9.90;99.90;;;;;;4993300;28;20121;-84
2022/10/23 07:18:14;;;;;;;27.17;11.95;;;11.00;99.90;;;;;;4987488;28;20089;-83
2022/10/23 07:20:42;;;;;;;27.55;12.88;;;10.00;99.90;;;;;;4975820;28;20054;-83
2022/10/23 07:23:20;;;;;;;26.17;11.52;;;10.00;99.90;;;;;;4974905;28;20050;-82
2022/10/23 07:25:55;;;;;;;27.67;12.13;;;10.20;99.90;;;;;;4994242;28;20050;-83
2022/10/23 07:28:40;;;;;;;28.35;11.77;;;9.50;99.90;;;;;;4977391;28;20042;-84
2022/10/23 07:31:15;;;;;;;28.55;10.93;;;9.60;99.90;;;;;;4976479;28;20032;-83
2022/10/23 07:34:14;;;;;;;22.52;11.13;;;11.10;99.90;;;;;;4975928;28;20050;-83
2022/10/23 07:40:26;;;;;;;22.58;10.75;;;10.30;99.90;;;;;;4992922;28;20032;-83
2022/10/23 07:47:11;;;;;;;26.42;11.43;;;10.40;99.90;;;;;;4992981;28;20045;-82
2022/10/23 07:53:31;;;;;;;25.30;11.35;;;9.80;99.90;;;;;;4973046;28;20126;-82
2022/10/23 07:56:00;;;;;;;24.58;11.05;;;10.50;99.90;;;;;;4973442;28;20122;-82
2022/10/23 07:58:35;;;;;;;29.08;11.93;;;10.40;99.90;;;;;;4970985;28;20092;-82
2022/10/23 08:03:44;;;;;;;21.15;10.13;;;10.70;99.90;;;;;;5008891;23;20521;-82
2022/10/23 08:06:10;;;;;;;25.77;11.10;;;10.70;99.90;;;;;;4978133;28;20498;-82
2022/10/23 08:08:36;;;;;;;25.20;10.88;;;10.80;99.90;;;;;;4996952;28;20133;-82
2022/10/23 08:11:01;;;;;;;25.67;13.25;;;11.80;99.90;;;;;;5034220;23;20049;-82
2022/10/23 08:13:27;;;;;;;23.63;11.63;;;11.00;99.90;;;;;;4978226;28;20413;-83
2022/10/23 08:15:59;;;;;;;29.98;11.00;;;10.90;99.90;;;;;;4996851;28;20049;-82
2022/10/23 08:18:31;;;;;;;21.48;10.57;;;11.00;99.90;;;;;;5081622;23;20050;31
2022/10/23 08:21:02;;;;;;;22.88;11.40;;;11.10;99.90;;;;;;4938166;29;20053;-83
2022/10/23 08:23:29;;;;;;;25.65;10.88;;;11.10;99.90;;;;;;4956247;29;20050;-83
2022/10/23 08:26:14;;;;;;;23.20;10.20;;;11.20;99.90;;;;;;4939882;29;20587;-83
2022/10/23 08:28:39;;;;;;;21.70;10.45;;;11.20;99.90;;;;;;4938400;29;20038;-83
2022/10/23 08:31:24;;;;;;;20.02;10.43;;;11.10;99.90;;;;;;4938809;29;20047;-83
2022/10/23 08:33:50;;;;;;;20.63;10.63;;;12.20;99.90;;;;;;4957199;28;20051;-83
2022/10/23 08:36:22;;;;;;;23.05;10.18;;;11.40;99.90;;;;;;4957765;29;20134;-84
2022/10/23 08:38:54;;;;;;;20.48;9.43;;;11.40;99.90;;;;;;4940784;29;20053;-82
2022/10/23 08:41:41;;;;;;;19.50;10.13;;;11.50;99.90;;;;;;4940183;29;20055;-82
2022/10/23 08:44:33;;;;;;;20.73;9.73;;;11.60;99.90;;;;;;4957833;29;20047;-83
2022/10/23 08:47:12;;;;;;;22.23;9.43;;;11.70;99.90;;;;;;4941020;29;20130;-83
2022/10/23 08:49:49;;;;;;;23.88;10.07;;;11.80;99.90;;;;;;4957253;29;20499;-82
2022/10/23 08:52:26;;;;;;;18.50;9.73;;;11.80;99.90;;;;;;4959433;29;20055;-83
2022/10/23 08:55:16;;;;;;;19.15;8.70;;;12.00;99.90;;;;;;4959716;29;20036;-83
2022/10/23 08:57:57;;;;;;;22.95;8.70;;;12.10;99.90;;;;;;4957905;28;20122;-83
2022/10/23 09:00:23;;;;;;;20.65;9.15;;;12.20;99.90;;;;;;4940445;29;20082;-83
2022/10/23 09:02:50;;;;;;;19.83;8.88;;;12.40;99.90;;;;;;4956772;29;20082;-83
2022/10/23 09:05:24;;;;;;;17.75;8.52;;;13.50;99.90;;;;;;4939677;29;20061;-83
2022/10/23 09:08:21;;;;;;;20.73;8.75;;;12.40;99.90;;;;;;4957675;29;20057;-83
2022/10/23 09:11:26;;;;;;;17.30;8.27;;;12.60;99.90;;;;;;4955855;28;20102;-82
2022/10/23 09:13:58;;;;;;;16.58;7.50;;;12.40;99.90;;;;;;4950011;29;20110;-82
2022/10/23 09:19:37;;;;;;;15.13;7.68;;;12.90;99.90;;;;;;4955766;28;20055;-82
2022/10/23 09:22:13;;;;;;;15.60;8.23;;;14.10;99.90;;;;;;4956099;29;20054;-82
2022/10/23 09:25:10;;;;;;;19.70;8.13;;;13.80;99.90;;;;;;4938495;29;20047;-83
2022/10/23 09:27:36;;;;;;;14.25;7.93;;;13.20;99.90;;;;;;4938829;28;20055;-82
2022/10/23 09:30:03;;;;;;;18.05;7.22;;;14.00;99.90;;;;;;4955897;28;20130;-83
2022/10/23 09:32:37;;;;;;;16.05;7.10;;;13.20;99.90;;;;;;4957263;29;20055;-83
2022/10/23 09:35:04;;;;;;;16.73;7.65;;;13.30;99.90;;;;;;4939611;29;20075;-83
2022/10/23 09:37:36;;;;;;;18.55;7.07;;;13.30;99.90;;;;;;4938786;29;20062;-83
2022/10/23 09:40:29;;;;;;;13.45;6.40;;;13.30;99.90;;;;;;4956361;29;20045;-83
2022/10/23 09:42:57;;;;;;;12.93;6.43;;;13.40;99.90;;;;;;4957086;29;20043;-83
2022/10/23 09:45:31;;;;;;;14.75;6.22;;;13.40;99.90;;;;;;4955444;29;20066;-83
2022/10/23 09:48:15;;;;;;;14.57;6.85;;;13.90;99.90;;;;;;4956703;29;20043;-83
2022/10/23 09:50:59;;;;;;;14.55;6.38;;;13.60;99.90;;;;;;4955808;28;20063;-82
2022/10/23 09:53:37;;;;;;;16.23;6.55;;;13.60;99.90;;;;;;4956604;29;20094;-83
2022/10/23 09:56:10;;;;;;;16.20;6.38;;;14.40;99.90;;;;;;4939359;29;20462;-83
2022/10/23 09:58:40;;;;;;;16.33;6.47;;;13.90;99.90;;;;;;4956059;29;20046;-83
2022/10/23 10:01:22;;;;;;;14.98;5.93;;;14.90;99.90;;;;;;4956471;29;20043;-83
2022/10/23 10:03:51;;;;;;;14.70;5.80;;;15.00;99.90;;;;;;4956412;29;20499;-83
2022/10/23 10:06:29;;;;;;;14.65;6.00;;;13.90;99.90;;;;;;4953597;28;20074;-83
2022/10/23 10:09:07;;;;;;;13.48;5.95;;;14.30;99.90;;;;;;4954190;28;20415;-84
2022/10/23 10:11:56;;;;;;;12.73;5.53;;;14.40;99.90;;;;;;4953503;28;20491;-83
2022/10/23 10:14:44;;;;;;;14.65;5.20;;;14.50;99.90;;;;;;4954129;28;20054;-83
2022/10/23 10:17:30;;;;;;;11.95;5.75;;;14.60;99.90;;;;;;4936819;29;20464;-83
2022/10/23 10:20:26;;;;;;;13.68;5.63;;;15.40;99.90;;;;;;4961297;28;20051;-84
2022/10/23 10:23:04;;;;;;;15.45;6.03;;;14.70;99.90;;;;;;4938426;28;20086;-83
2022/10/23 10:25:36;;;;;;;12.48;5.28;;;14.80;99.90;;;;;;4937823;29;20043;-83
2022/10/23 10:28:27;;;;;;;16.35;5.47;;;14.80;99.90;;;;;;4955487;28;20075;-83
2022/10/23 10:31:29;;;;;;;11.13;5.03;;;14.90;99.90;;;;;;4938237;29;20043;-83
2022/10/23 10:34:17;;;;;;;11.13;5.30;;;14.90;99.90;;;;;;4937184;29;20123;-83
2022/10/23 10:36:54;;;;;;;13.07;5.22;;;15.00;99.90;;;;;;4955368;28;20093;-83
2022/10/23 10:39:30;;;;;;;12.43;5.25;;;15.20;99.90;;;;;;4937792;29;20511;-83
2022/10/23 10:42:32;;;;;;;11.13;5.18;;;15.70;99.90;;;;;;4951392;28;20051;-83
2022/10/23 10:45:13;;;;;;;14.45;5.40;;;15.10;99.90;;;;;;4937008;29;20078;-83
2022/10/23 10:47:39;;;;;;;11.77;4.72;;;15.10;99.90;;;;;;4935492;29;20085;-83
2022/10/23 10:50:22;;;;;;;15.02;5.18;;;15.20;99.90;;;;;;4936612;29;20079;-84
2022/10/23 10:53:13;;;;;;;11.00;4.63;;;15.20;99.90;;;;;;4955060;29;20053;-83
2022/10/23 10:55:43;;;;;;;13.70;5.85;;;15.20;99.90;;;;;;4937126;29;20491;-84
2022/10/23 10:58:34;;;;;;;11.00;4.65;;;15.30;99.90;;;;;;4937688;29;20043;-85
2022/10/23 11:01:07;;;;;;;15.30;5.05;;;15.30;99.90;;;;;;4954832;29;20051;-83
2022/10/23 11:03:51;;;;;;;12.87;4.80;;;16.10;99.90;;;;;;4955492;29;20093;-84
2022/10/23 11:06:19;;;;;;;;;;;15.30;99.90;;;;;;4937915;29;20078;-84
2022/10/23 11:08:44;;;;;;;14.38;5.07;;;15.20;99.90;;;;;;4937260;29;20371;-84
2022/10/23 11:11:23;;;;;;;12.60;4.60;;;15.30;99.90;;;;;;4954752;28;20050;-83
2022/10/23 11:13:51;;;;;;;10.88;4.45;;;15.30;99.90;;;;;;4954947;29;20047;-83
2022/10/23 11:16:26;;;;;;;12.60;4.30;;;15.90;99.90;;;;;;4953835;29;20039;-82
2022/10/23 11:19:24;;;;;;;12.43;4.55;;;15.60;99.90;;;;;;4937496;28;20079;-84
2022/10/23 11:22:10;;;;;;;11.82;4.53;;;15.30;99.90;;;;;;4954401;28;20098;-84
2022/10/23 11:25:17;;;;;;;9.88;4.25;;;15.50;99.90;;;;;;4936620;29;20035;-84
2022/10/23 11:28:15;;;;;;;11.82;4.60;;;15.30;99.90;;;;;;4940564;29;20043;-84
2022/10/23 11:31:02;;;;;;;10.93;4.47;;;15.40;99.90;;;;;;4922607;29;20153;-85
2022/10/23 11:34:05;;;;;;;10.13;4.22;;;15.30;99.90;;;;;;4936209;29;20058;-84
2022/10/23 11:36:51;;;;;;;11.85;4.50;;;15.30;99.90;;;;;;4936581;29;20126;-84
2022/10/23 11:39:29;;;;;;;12.82;4.32;;;15.40;99.90;;;;;;4935045;29;20043;-84
2022/10/23 11:42:03;;;;;;;12.40;4.65;;;15.50;99.90;;;;;;4936996;29;20035;-85
2022/10/23 11:44:44;;;;;;;13.82;4.47;;;15.40;99.90;;;;;;4956165;29;20053;-86
2022/10/23 11:47:28;;;;;;;11.43;4.47;;;15.40;99.90;;;;;;4943762;28;20091;-84
2022/10/23 11:50:25;;;;;;;10.93;4.28;;;15.50;99.90;;;;;;4937394;29;20047;-84
2022/10/23 11:56:11;;;;;;;11.32;4.30;;;15.50;99.90;;;;;;4936331;28;20503;-83
2022/10/23 11:58:48;;;;;;;10.23;4.20;;;16.50;99.90;;;;;;4936237;29;20039;-85
2022/10/23 12:01:35;;;;;;;9.68;4.07;;;16.10;99.90;;;;;;4936240;28;20039;-83
2022/10/23 12:04:13;;;;;;;11.45;4.20;;;16.40;99.90;;;;;;4935899;29;20062;-84
2022/10/23 12:06:55;;;;;;;13.60;4.30;;;15.70;99.90;;;;;;4936410;29;20043;-84
2022/10/23 12:09:40;;;;;;;10.70;3.80;;;15.80;99.90;;;;;;4953774;28;20118;-84
2022/10/23 12:12:06;;;;;;;9.55;3.83;;;15.80;99.90;;;;;;4924256;29;20050;-84
2022/10/23 12:14:47;;;;;;;9.73;3.70;;;15.90;99.90;;;;;;4937156;29;20051;-84
2022/10/23 12:17:22;;;;;;;10.88;3.97;;;15.90;99.90;;;;;;4953600;28;20476;-83
2022/10/23 12:20:08;;;;;;;9.77;3.67;;;16.10;99.90;;;;;;4935761;28;20078;-83
2022/10/23 12:22:51;;;;;;;12.05;3.83;;;15.90;99.90;;;;;;4923650;28;20062;-84
2022/10/23 12:25:50;;;;;;;11.20;3.90;;;15.90;99.90;;;;;;4935397;29;20054;-83
2022/10/23 12:28:27;;;;;;;13.18;3.63;;;15.90;99.90;;;;;;4936198;28;20048;-84
2022/10/23 12:31:04;;;;;;;10.57;3.58;;;16.00;99.90;;;;;;4953711;28;20117;-84
2022/10/23 12:33:42;;;;;;;8.70;3.20;;;16.00;99.90;;;;;;4951808;28;20046;-84
2022/10/23 12:36:21;;;;;;;12.07;3.80;;;16.10;99.90;;;;;;4935722;29;20058;-84
2022/10/23 12:38:48;;;;;;;11.18;3.88;;;16.10;99.90;;;;;;4936260;29;20055;-84
2022/10/23 12:41:24;;;;;;;10.63;3.55;;;16.90;99.90;;;;;;4945374;23;20113;-84
2022/10/23 12:43:53;;;;;;;9.50;3.65;;;16.50;99.90;;;;;;4953469;28;20087;-84
2022/10/23 12:46:28;;;;;;;9.38;3.58;;;16.20;99.90;;;;;;4951289;28;20086;-84
2022/10/23 12:48:55;;;;;;;10.48;3.53;;;16.30;99.90;;;;;;4955928;28;20074;-84
2022/10/23 12:51:27;;;;;;;10.60;3.47;;;16.30;99.90;;;;;;4956578;28;20059;-84
2022/10/23 12:53:53;;;;;;;10.35;3.50;;;16.30;99.90;;;;;;4956084;28;20039;-84
2022/10/23 12:56:19;;;;;;;9.65;3.80;;;16.30;99.90;;;;;;4957003;28;20130;-86
2022/10/23 12:58:59;;;;;;;10.73;3.53;;;17.10;99.90;;;;;;4957136;28;20528;-86
2022/10/23 13:01:33;;;;;;;7.70;3.20;;;16.20;99.90;;;;;;4954801;28;20176;-87
2022/10/23 13:04:42;;;;;;;8.52;3.33;;;16.10;99.90;;;;;;4953928;23;20067;-88
2022/10/23 13:07:11;;;;;;;10.02;3.72;;;16.10;99.90;;;;;;4939658;29;20542;-85
2022/10/23 13:09:41;;;;;;;10.57;3.58;;;17.10;99.90;;;;;;4939340;29;20042;-86
2022/10/23 13:12:36;;;;;;;10.25;3.40;;;16.10;99.90;;;;;;4951606;29;20059;-86
2022/10/23 13:15:09;;;;;;;15.50;4.30;;;16.00;99.90;;;;;;4939705;29;20110;-87
2022/10/23 13:18:03;;;;;;;10.75;3.50;;;16.60;99.90;;;;;;4939722;29;20059;-86
2022/10/23 13:20:36;;;;;;;10.20;3.63;;;16.00;99.90;;;;;;4956271;28;20050;-85
2022/10/23 13:23:15;;;;;;;11.05;3.60;;;16.80;99.90;;;;;;4938618;29;20046;-86
2022/10/23 13:25:48;;;;;;;9.35;3.42;;;16.70;99.90;;;;;;4939016;29;20058;-86
2022/10/23 13:28:25;;;;;;;10.02;3.70;;;16.10;99.90;;;;;;4897116;29;20052;-85
2022/10/23 13:31:09;;;;;;;13.65;3.50;;;16.60;99.90;;;;;;4881577;29;20148;-86
2022/10/23 13:33:44;;;;;;;11.27;4.00;;;16.20;99.90;;;;;;4853580;29;20090;-85
2022/10/23 13:36:12;;;;;;;9.82;3.60;;;16.20;99.90;;;;;;4873397;29;20136;-85
2022/10/23 13:38:40;;;;;;;11.00;3.60;;;16.20;99.90;;;;;;4896810;29;20070;-85
2022/10/23 13:41:12;;;;;;;9.70;3.28;;;16.20;99.90;;;;;;4896736;29;20053;-84
2022/10/23 13:43:38;;;;;;;9.80;3.60;;;16.80;99.90;;;;;;4880412;29;20161;-84
2022/10/23 13:46:04;;;;;;;9.32;3.47;;;16.70;99.90;;;;;;4883855;29;20069;-85
2022/10/23 13:48:29;;;;;;;11.85;3.95;;;16.30;99.90;;;;;;4867279;29;20492;-85
2022/10/23 13:51:30;;;;;;;10.95;4.00;;;16.30;99.90;;;;;;4896196;29;20489;-85
2022/10/23 13:57:36;;;;;;;12.32;4.55;;;16.20;99.90;;;;;;4895849;29;20039;-85